Flight Track Log - Related Links

Times and Time Zones

All times are in EDT time to prevent confusion due to time zone crossing. See the EJA831 flight status page for this flight to view local times or setup timezone preferences in your user account.

Time Position Orientation Groundspeed Altitude Reporting Facility
EDT Latitude Longitude Course Direction KTS MPH feet Rate Location/Type
Sat 05:14:58 PM 28.2667 -81.4500 206° Southwest 162 186 2,000  Level Orlando TRACON
Sat 05:15:57 PM 28.2667 -81.5000 270° West 182 209 4,000 1,750 Climbing Orlando TRACON
Sat 05:16:58 PM 28.2833 -81.5667 286° West 198 228 5,500 2,033 Climbing Orlando TRACON
Sat 05:17:58 PM 28.3500 -81.5667 360° North 253 291 8,100 2,429 Climbing Orlando TRACON
Sat 05:20:23 PM 28.5417 -81.5622 North 298 343 13,800 2,341 Climbing Jacksonville Center
Sat 05:21:23 PM 28.6314 -81.5608 North 310 357 16,100 2,150 Climbing Jacksonville Center
Sat 05:22:23 PM 28.7231 -81.5572 North 321 369 18,100 2,050 Climbing Jacksonville Center
Sat 05:23:23 PM 28.8192 -81.5536 North 332 382 20,200 1,900 Climbing Jacksonville Center
Sat 05:24:23 PM 28.9214 -81.5522 North 339 390 21,900 1,550 Climbing Jacksonville Center
Sat 05:25:23 PM 29.0236 -81.5486 North 356 410 23,300 1,400 Climbing Jacksonville Center
Sat 05:26:23 PM 29.1342 -81.5447 North 368 423 24,700 1,300 Climbing Jacksonville Center
Sat 05:27:23 PM 29.2303 -81.5481 358° North 382 440 25,900 1,300 Climbing Jacksonville Center
Sat 05:28:23 PM 29.3411 -81.5633 353° North 387 445 27,300 1,400 Climbing Jacksonville Center
Sat 05:29:23 PM 29.4514 -81.5331 13° North 387 445 28,700 1,300 Climbing Jacksonville Center
Sat 05:30:23 PM 29.5619 -81.5339 360° North 387 445 29,900 1,100 Climbing Jacksonville Center
Sat 05:31:23 PM 29.6767 -81.5325 North 392 451 30,900 1,000 Climbing Jacksonville Center
Sat 05:32:23 PM 29.7917 -81.5283 North 404 465 31,900 800 Climbing Jacksonville Center
Sat 05:33:23 PM 29.9064 -81.5244 North 404 465 32,500 550 Climbing Jacksonville Center
Sat 05:34:23 PM 30.0378 -81.5203 North 412 474 33,000 250 Climbing Jacksonville Center
Sat 05:35:23 PM 30.1589 -81.5161 North 423 487 33,000  Level Jacksonville Center
Sat 05:36:23 PM 30.2842 -81.5094 North 435 501 33,000 250 Level Jacksonville Center
Sat 05:37:23 PM 30.4072 -81.5028 North 440 506 33,500 750 Climbing Jacksonville Center
Sat 05:38:23 PM 30.5283 -81.4961 North 440 506 34,500 1,000 Climbing Jacksonville Center
Sat 05:39:23 PM 30.6472 -81.4847 North 429 494 35,500 1,000 Climbing Jacksonville Center
Sat 05:40:23 PM 30.7661 -81.4783 North 429 494 36,500 1,000 Climbing Jacksonville Center
Sat 05:41:23 PM 30.8828 -81.4669 North 423 487 37,500 750 Climbing Jacksonville Center
Sat 05:42:23 PM 31.0017 -81.4578 North 423 487 38,000 500 Climbing Jacksonville Center
Sat 05:43:23 PM 31.1247 -81.4486 North 423 487 38,500 500 Climbing Jacksonville Center
Sat 05:44:23 PM 31.2478 -81.4394 North 434 499 39,000 500 Climbing Jacksonville Center
Sat 05:45:23 PM 31.3686 -81.4058 13° North 445 512 39,500 500 Climbing Jacksonville Center
Sat 05:46:23 PM 31.4811 -81.3772 12° North 452 520 40,000 550 Climbing Jacksonville Center
Sat 05:47:23 PM 31.6183 -81.3408 13° North 452 520 40,600 500 Climbing Jacksonville Center
Sat 05:48:23 PM 31.7308 -81.3122 12° North 447 514 41,000 200 Climbing Jacksonville Center
Sat 05:49:23 PM 31.8639 -81.2756 13° North 452 520 41,000  Level Jacksonville Center
Sat 05:50:23 PM 31.9931 -81.2417 13° North 452 520 41,000  Level Jacksonville Center
Sat 05:51:23 PM 32.1178 -81.2075 13° North 458 527 41,000  Level Jacksonville Center
Sat 05:52:23 PM 32.2378 -81.1339 27° Northeast 458 527 41,000  Level Jacksonville Center
Sat 05:53:23 PM 32.3433 -81.0606 30° Northeast 481 554 41,000  Level Jacksonville Center
Sat 05:54:23 PM 32.4672 -80.9694 32° Northeast 481 554 41,000  Level Jacksonville Center
Sat 05:55:23 PM 32.5828 -80.8858 31° Northeast 481 554 41,000  Level Jacksonville Center
Sat 05:56:23 PM 32.6961 -80.8017 32° Northeast 481 554 41,000  Level Jacksonville Center
Sat 05:57:23 PM 32.8117 -80.7200 31° Northeast 481 554 41,000  Level Jacksonville Center
Sat 05:58:23 PM 32.9106 -80.6458 32° Northeast 476 548 41,000  Level Jacksonville Center
Sat 05:59:23 PM 33.0261 -80.5661 30° Northeast 476 548 41,000  Level Jacksonville Center
Sat 06:00:23 PM 33.1414 -80.4836 31° Northeast 476 548 41,000  Level Jacksonville Center
Sat 06:01:23 PM 33.2567 -80.3961 32° Northeast 476 548 41,000  Level Jacksonville Center
Sat 06:02:23 PM 33.3697 -80.3108 32° Northeast 476 548 41,000  Level Jacksonville Center
Sat 06:03:23 PM 33.4828 -80.2256 32° Northeast 476 548 41,000  Level Jacksonville Center
Sat 06:04:23 PM 33.5936 -80.1425 32° Northeast 471 542 41,000  Level Jacksonville Center
Sat 06:05:23 PM 33.7064 -80.0589 32° Northeast 471 542 41,000  Level Jacksonville Center
Sat 06:06:23 PM 33.8192 -79.9703 33° Northeast 471 542 41,000  Level Jacksonville Center
Sat 06:07:23 PM 33.9342 -79.8864 31° Northeast 471 542 41,000  Level Jacksonville Center
Sat 06:09:42 PM 34.1892 -79.6942 32° Northeast 470 541 41,000  Level Washington Center
Sat 06:10:40 PM 34.3086 -79.6169 28° Northeast 481 554 41,000  Level Washington Center
Sat 06:11:41 PM 34.4317 -79.5525 23° Northeast 481 554 41,000  Level Washington Center
Sat 06:12:41 PM 34.5547 -79.4906 23° Northeast 475 547 41,000  Level Washington Center
Sat 06:13:42 PM 34.6778 -79.4256 23° Northeast 475 547 41,000  Level Washington Center
Sat 06:14:42 PM 34.8011 -79.3606 23° Northeast 475 547 41,000  Level Washington Center
Sat 06:15:41 PM 34.9219 -79.2953 24° Northeast 475 547 41,000  Level Washington Center
Sat 06:16:41 PM 35.0469 -79.2325 22° Northeast 475 547 41,000  Level Washington Center
Sat 06:17:42 PM 35.1700 -79.1644 24° Northeast 475 547 41,000  Level Washington Center
Sat 06:18:43 PM 35.2931 -79.1011 23° Northeast 475 547 41,000  Level Washington Center
Sat 06:19:41 PM 35.4158 -79.0353 24° Northeast 480 552 41,000  Level Washington Center
Sat 06:20:42 PM 35.5386 -78.9717 23° Northeast 480 552 41,000  Level Washington Center
Sat 06:21:43 PM 35.6617 -78.9028 24° Northeast 480 552 41,000  Level Washington Center
Sat 06:22:40 PM 35.7825 -78.8361 24° Northeast 480 552 41,000 -51 Level Washington Center
Sat 06:23:41 PM 35.9031 -78.7692 24° Northeast 480 552 40,900 -344 Descending Washington Center
Sat 06:24:42 PM 36.0261 -78.6997 25° Northeast 480 552 40,300 -446 Descending Washington Center
Sat 06:25:42 PM 36.1508 -78.6300 24° Northeast 480 552 40,000 -150 Descending Washington Center
Sat 06:26:42 PM 36.2736 -78.5600 25° Northeast 485 558 40,000  Level Washington Center
Sat 06:27:40 PM 36.3900 -78.4922 25° Northeast 478 550 40,000  Level Washington Center
Sat 06:28:41 PM 36.5022 -78.4292 24° Northeast 454 522 40,000  Level Washington Center
Sat 06:29:40 PM 36.6142 -78.3658 24° Northeast 439 505 40,000  Level Washington Center
Sat 06:30:41 PM 36.7328 -78.2950 26° Northeast 434 499 40,000  Level Washington Center
Sat 06:31:42 PM 36.8406 -78.2339 24° Northeast 428 493 40,000  Level Washington Center
Sat 06:32:40 PM 36.9292 -78.1822 25° Northeast 428 493 40,000  Level Washington Center
Sat 06:33:41 PM 37.0667 -78.1011 25° Northeast 433 498 40,000  Level Washington Center
Sat 06:34:42 PM 37.1586 -77.9869 45° Northeast 455 524 40,000  Level Washington Center
Sat 06:35:40 PM 37.2178 -77.8400 63° Northeast 445 512 40,000  Level Washington Center
Sat 06:36:40 PM 37.3319 -77.7572 30° Northeast 452 520 40,000  Level Washington Center
Sat 06:37:41 PM 37.4483 -77.7761 353° North 395 455 40,000  Level Washington Center
Sat 06:38:41 PM 37.5603 -77.8239 341° North 395 455 40,000  Level Washington Center
Sat 06:39:40 PM 37.6792 -77.8142 North 410 472 40,000  Level Washington Center
Sat 06:40:40 PM 37.7894 -77.7228 33° Northeast 428 493 40,000  Level Washington Center
Sat 06:41:41 PM 37.8892 -77.6178 40° Northeast 440 506 40,000  Level Washington Center
Sat 06:42:41 PM 37.9911 -77.5100 40° Northeast 452 520 40,000  Level Washington Center
Sat 06:43:41 PM 38.0908 -77.4017 41° Northeast 464 534 40,000  Level Washington Center
Sat 06:44:40 PM 38.1925 -77.2958 39° Northeast 470 541 40,000  Level Washington Center
Sat 06:45:42 PM 38.3061 -77.2164 29° Northeast 470 541 40,000  Level Washington Center
Sat 06:46:40 PM 38.4278 -77.1553 21° North 460 529 40,000 -763 Level Washington Center
Sat 06:47:40 PM 38.5497 -77.0889 23° Northeast 460 529 38,500 -1,600 Descending Washington Center
Sat 06:48:40 PM 38.6367 -76.9578 50° Northeast 463 533 36,800 -1,240 Descending Washington Center
Sat 06:49:41 PM 38.6781 -76.8017 71° East 445 512 36,000 -744 Descending Washington Center
Sat 06:50:41 PM 38.7147 -76.6533 72° East 434 499 35,300 -1,240 Descending Washington Center
Sat 06:51:42 PM 38.7908 -76.5186 54° Northeast 452 520 33,500 -2,118 Descending Washington Center
Sat 06:52:40 PM 38.9061 -76.4319 30° Northeast 452 520 31,100 -2,441 Descending Washington Center
Sat 06:53:40 PM 39.0172 -76.3397 33° Northeast 464 534 28,700 -2,430 Descending Washington Center
Sat 06:54:41 PM 39.1283 -76.2525 31° Northeast 464 534 26,200 -2,262 Descending Washington Center
Sat 06:55:42 PM 39.2267 -76.1489 39° Northeast 464 534 24,100 -1,140 Descending Washington Center
Sat 06:56:42 PM 39.3189 -76.0503 40° Northeast 452 520 23,900 -1,556 Descending Washington Center
Sat 06:58:24 PM 39.4833 -75.8833 38° Northeast 424 488 19,900 -2,296 Descending Philadelphia TRACON
Sat 06:59:24 PM 39.5833 -75.8000 33° Northeast 402 463 17,700 -2,250 Descending Philadelphia TRACON
Sat 07:00:24 PM 39.6667 -75.7167 38° Northeast 399 459 15,400 -2,100 Descending Philadelphia TRACON
Sat 07:01:24 PM 39.7500 -75.6333 38° Northeast 367 422 13,500 -1,316 Descending Philadelphia TRACON
Sat 07:02:18 PM 39.8333 -75.5667 32° Northeast 368 423 12,900 -316 Descending Philadelphia TRACON
Sat 07:03:18 PM 39.9167 -75.4833 37° Northeast 386 444 12,900  Level Philadelphia TRACON
Sat 07:04:18 PM 40.0000 -75.4167 31° Northeast 380 437 12,900  Level Philadelphia TRACON
Sat 07:05:18 PM 40.0833 -75.3333 37° Northeast 377 434 12,900 -250 Level Philadelphia TRACON
Sat 07:06:18 PM 40.1667 -75.2500 37° Northeast 374 430 12,400 -1,000 Descending Philadelphia TRACON
Sat 07:07:18 PM 40.2500 -75.1833 31° Northeast 327 376 10,900 -1,600 Descending Philadelphia TRACON
Sat 07:08:18 PM 40.3167 -75.1167 37° Northeast 330 380 9,200 -1,606 Descending Philadelphia TRACON
Sat 07:09:25 PM 40.3833 -75.0167 49° Northeast 312 359 7,500 -1,276 Descending New York TRACON
Sat 07:10:25 PM 40.4500 -74.9333 44° Northeast 295 339 6,500 -1,650 Descending New York TRACON
Sat 07:11:25 PM 40.5000 -74.8667 45° Northeast 288 331 4,200 -1,750 Descending New York TRACON
Sat 07:12:25 PM 40.5500 -74.7833 52° Northeast 262 302 3,000 -600 Descending New York TRACON
Sat 07:13:25 PM 40.5667 -74.7167 72° East 226 260 3,000  Level New York TRACON
Sat 07:14:25 PM 40.6000 -74.6333 62° Northeast 224 258 3,000  Level New York TRACON
Sat 07:15:25 PM 40.6167 -74.5667 72° East 220 253 3,000 -500 Level New York TRACON
Sat 07:16:25 PM 40.6333 -74.5000 72° East 197 227 2,000 -500 Descending New York TRACON
Sat 07:17:25 PM 40.6667 -74.4333 57° Northeast 176 203 2,000  Level New York TRACON
Sat 07:18:25 PM 40.6833 -74.3833 66° East 172 198 2,000  Level New York TRACON
Sat 07:19:25 PM 40.7000 -74.3167 72° East 178 205 2,000 -200 Level New York TRACON
Sat 07:20:25 PM 40.7167 -74.2667 66° East 158 182 1,600 -250 Descending New York TRACON
Sat 07:21:25 PM 40.7500 -74.2167 49° Northeast 177 204 1,500 -50 Descending New York TRACON
Sat 07:22:25 PM 40.7833 -74.1667 49° Northeast 169 194 1,500 -150 Level New York TRACON
Sat 07:23:25 PM 40.8000 -74.1333 57° Northeast 127 146 1,200 -400 Descending New York TRACON
Sat 07:24:25 PM 40.8333 -74.1000 37° Northeast 106 122 700 -500 Descending New York TRACON

Login

Don't have an account? Register now (free) for customized features, flight alerts, and more!